Time;durP1;ratioP1;P1;durP2;ratioP2;P2;SDS_P1;SDS_P2;PMS_P1;PMS_P2;Temp;Humidity;BMP_temperature;BMP_pressure;BME280_temperature;BME280_humidity;BME280_pressure;Samples;Min_cycle;Max_cycle;Signal;HPM_P1;HPM_P2
2022/03/25 00:00:37;;;;;;;34.75;18.80;;;6.80;98.50;;;;;;4998932;28;20082;-66
2022/03/25 00:03:05;;;;;;;32.17;19.08;;;6.80;99.10;;;;;;5002687;28;20137;-67
2022/03/25 00:05:33;;;;;;;33.45;19.15;;;6.80;99.60;;;;;;4995174;28;20876;-66
2022/03/25 00:08:01;;;;;;;28.98;17.58;;;6.70;99.90;;;;;;5009899;28;20057;-66
2022/03/25 00:10:28;;;;;;;29.23;17.63;;;6.70;99.90;;;;;;4994111;28;20061;-67
2022/03/25 00:12:56;;;;;;;29.75;17.23;;;6.60;99.90;;;;;;5007137;28;20054;-66
2022/03/25 00:15:24;;;;;;;28.55;17.52;;;6.60;99.90;;;;;;4992913;28;20595;-66
2022/03/25 00:17:52;;;;;;;29.45;18.10;;;6.60;99.90;;;;;;4992730;28;20070;-66
2022/03/25 00:20:19;;;;;;;27.02;17.15;;;6.50;99.90;;;;;;4993253;28;20113;-66
2022/03/25 00:22:47;;;;;;;29.10;17.65;;;6.50;99.90;;;;;;5008166;28;20054;-66
2022/03/25 00:25:14;;;;;;;27.20;18.65;;;6.50;99.90;;;;;;5002503;28;20104;-67
2022/03/25 00:27:42;;;;;;;29.50;17.83;;;6.50;99.90;;;;;;4995193;28;20046;-66
2022/03/25 00:30:10;;;;;;;30.88;19.13;;;6.50;99.90;;;;;;4991279;28;20054;-66
2022/03/25 00:32:37;;;;;;;37.35;19.90;;;6.40;99.90;;;;;;4993345;28;20578;-66
2022/03/25 00:35:06;;;;;;;37.53;21.77;;;6.40;99.90;;;;;;4991375;28;20511;-66
2022/03/25 00:37:33;;;;;;;37.72;21.60;;;6.40;99.90;;;;;;4991905;28;20502;-66
2022/03/25 00:40:01;;;;;;;35.45;22.90;;;6.40;99.90;;;;;;4991440;28;20409;-66
2022/03/25 00:42:30;;;;;;;34.15;21.30;;;6.40;99.90;;;;;;4990929;28;20494;-66
2022/03/25 00:45:01;;;;;;;31.42;20.77;;;6.40;99.90;;;;;;4995410;28;20050;-66
2022/03/25 00:47:29;;;;;;;33.23;21.63;;;6.40;99.90;;;;;;4998905;28;20286;-66
2022/03/25 00:49:56;;;;;;;32.90;20.98;;;6.30;99.90;;;;;;4994320;28;20046;-66
2022/03/25 00:52:24;;;;;;;32.75;20.95;;;6.30;99.90;;;;;;4997200;28;20098;-66
2022/03/25 00:54:53;;;;;;;35.05;21.40;;;6.20;99.90;;;;;;4990582;28;20042;-67
2022/03/25 00:57:21;;;;;;;34.47;22.15;;;6.20;99.90;;;;;;4993298;28;20042;-66
2022/03/25 00:59:51;;;;;;;35.33;22.70;;;6.20;99.90;;;;;;5003377;28;20112;-65
2022/03/25 01:02:19;;;;;;;37.00;22.63;;;6.20;99.90;;;;;;5011367;28;20045;-66
2022/03/25 01:04:50;;;;;;;38.50;22.65;;;6.10;99.90;;;;;;5009475;28;20508;-65
2022/03/25 01:07:19;;;;;;;40.08;22.67;;;6.10;99.90;;;;;;4990725;28;20489;-65
2022/03/25 01:09:46;;;;;;;34.83;21.73;;;6.10;99.90;;;;;;4991806;28;20057;-66
2022/03/25 01:12:14;;;;;;;39.22;23.38;;;6.10;99.90;;;;;;4991380;28;20056;-66
2022/03/25 01:14:42;;;;;;;40.95;23.70;;;6.10;99.90;;;;;;4993585;28;20073;-66
2022/03/25 01:17:15;;;;;;;39.20;23.38;;;6.10;99.90;;;;;;4988853;28;20050;-66
2022/03/25 01:19:44;;;;;;;38.85;23.80;;;6.00;99.90;;;;;;4996228;28;20136;-66
2022/03/25 01:22:11;;;;;;;34.40;21.08;;;6.00;99.90;;;;;;4999263;28;20049;-65
2022/03/25 01:24:38;;;;;;;34.47;21.65;;;6.00;99.90;;;;;;5000464;28;20528;-66
2022/03/25 01:27:06;;;;;;;34.95;21.30;;;5.90;99.90;;;;;;4995482;28;20450;-66
2022/03/25 01:29:34;;;;;;;35.85;20.65;;;5.90;99.90;;;;;;4994713;28;20417;-67
2022/03/25 01:32:01;;;;;;;35.90;21.60;;;5.80;99.90;;;;;;4994428;28;20042;-67
2022/03/25 01:34:29;;;;;;;39.72;22.08;;;5.80;99.90;;;;;;4995059;28;20034;-66
2022/03/25 01:36:56;;;;;;;35.72;22.02;;;5.80;99.90;;;;;;4990968;28;20077;-66
2022/03/25 01:39:25;;;;;;;38.15;21.90;;;5.70;99.90;;;;;;5003317;28;20149;-66
2022/03/25 01:41:55;;;;;;;34.50;21.25;;;5.70;99.90;;;;;;4992112;28;20058;-67
2022/03/25 01:44:25;;;;;;;33.30;20.58;;;5.60;99.90;;;;;;4990920;28;20457;-67
2022/03/25 01:46:57;;;;;;;35.38;21.67;;;5.60;99.90;;;;;;4991747;28;20038;-66
2022/03/25 01:49:24;;;;;;;39.55;22.98;;;5.60;99.90;;;;;;4976663;28;20473;-67
2022/03/25 01:51:55;;;;;;;38.05;24.13;;;5.50;99.90;;;;;;4991792;28;20478;-67
2022/03/25 01:54:26;;;;;;;33.27;22.43;;;5.40;99.90;;;;;;5004072;28;20112;-66
2022/03/25 01:57:02;;;;;;;40.05;25.08;;;5.40;99.90;;;;;;4991551;28;20039;-66
2022/03/25 01:59:30;;;;;;;39.22;24.77;;;5.40;99.90;;;;;;4993691;28;20129;-66
2022/03/25 02:01:59;;;;;;;38.80;23.17;;;5.30;99.90;;;;;;5004389;28;20050;-66
2022/03/25 02:04:31;;;;;;;37.58;22.77;;;5.30;99.90;;;;;;5000330;28;20046;-67
2022/03/25 02:06:58;;;;;;;36.63;21.27;;;5.30;99.90;;;;;;4999334;28;20151;-66
2022/03/25 02:09:26;;;;;;;37.53;21.30;;;5.30;99.90;;;;;;5000657;28;20049;-66
2022/03/25 02:11:56;;;;;;;37.80;21.80;;;5.30;99.90;;;;;;5004295;28;20050;-65
2022/03/25 02:14:24;;;;;;;32.22;21.05;;;5.30;99.90;;;;;;5009674;28;20045;-65
2022/03/25 02:16:52;;;;;;;36.65;22.05;;;5.20;99.90;;;;;;5010393;28;20088;-65
2022/03/25 02:19:20;;;;;;;35.20;20.65;;;5.20;99.90;;;;;;5006319;28;20089;-65
2022/03/25 02:21:50;;;;;;;36.42;20.98;;;5.10;99.90;;;;;;5001100;28;20042;-66
2022/03/25 02:24:24;;;;;;;32.92;19.70;;;5.10;99.90;;;;;;4994256;28;20157;-66
2022/03/25 02:26:52;;;;;;;36.15;21.52;;;5.10;99.90;;;;;;4990287;28;20043;-66
2022/03/25 02:29:20;;;;;;;35.58;20.40;;;5.00;99.90;;;;;;4996947;28;20044;-66
2022/03/25 02:31:47;;;;;;;32.50;20.25;;;5.10;99.90;;;;;;4997791;28;20164;-66
2022/03/25 02:34:15;;;;;;;32.35;20.05;;;5.00;99.90;;;;;;4991286;28;20042;-66
2022/03/25 02:36:45;;;;;;;33.88;21.50;;;5.00;99.90;;;;;;5003154;28;20046;-66
2022/03/25 02:39:14;;;;;;;38.80;24.55;;;5.00;99.90;;;;;;4998656;28;20046;-66
2022/03/25 02:41:44;;;;;;;39.17;23.45;;;5.00;99.90;;;;;;5003930;28;20042;-66
2022/03/25 02:44:12;;;;;;;39.15;22.98;;;5.00;99.90;;;;;;4979705;28;20053;-66
2022/03/25 02:46:45;;;;;;;44.95;25.85;;;4.90;99.90;;;;;;5011108;28;20196;-66
2022/03/25 02:49:12;;;;;;;43.53;25.35;;;4.90;99.90;;;;;;4995039;28;20046;-66
2022/03/25 02:51:40;;;;;;;38.72;23.58;;;4.90;99.90;;;;;;4992413;28;20456;-66
2022/03/25 02:54:08;;;;;;;37.72;21.77;;;4.90;99.90;;;;;;5001312;28;20401;-66
2022/03/25 02:56:35;;;;;;;39.10;23.73;;;4.90;99.90;;;;;;5000691;28;20588;-65
2022/03/25 02:59:03;;;;;;;39.85;24.52;;;4.90;99.90;;;;;;5003959;28;20093;-66
2022/03/25 03:01:30;;;;;;;42.67;25.13;;;4.90;99.90;;;;;;5001503;28;20052;-66
2022/03/25 03:03:57;;;;;;;42.30;25.90;;;4.90;99.90;;;;;;5006735;28;20046;-66
2022/03/25 03:06:26;;;;;;;41.05;25.30;;;4.90;99.90;;;;;;5000639;28;20091;-66
2022/03/25 03:08:53;;;;;;;38.42;23.88;;;4.90;99.90;;;;;;5008586;28;20054;-66
2022/03/25 03:11:21;;;;;;;37.28;23.77;;;4.80;99.90;;;;;;4999091;28;20111;-66
2022/03/25 03:13:48;;;;;;;39.33;23.23;;;4.80;99.90;;;;;;5003142;28;20050;-66
2022/03/25 03:16:15;;;;;;;35.33;21.90;;;4.70;99.90;;;;;;5003821;28;20052;-66
2022/03/25 03:18:43;;;;;;;39.10;22.88;;;4.60;99.90;;;;;;4989660;28;20038;-66
2022/03/25 03:21:11;;;;;;;38.40;21.02;;;4.60;99.90;;;;;;4991174;28;20057;-66
2022/03/25 03:23:39;;;;;;;33.50;21.67;;;4.50;99.90;;;;;;4997730;28;20111;-66
2022/03/25 03:26:06;;;;;;;31.52;19.65;;;4.40;99.90;;;;;;4992902;28;20573;-65
2022/03/25 03:28:34;;;;;;;32.92;19.05;;;4.40;99.90;;;;;;4995736;28;20790;-66
2022/03/25 03:31:01;;;;;;;30.42;18.80;;;4.40;99.90;;;;;;4996367;28;20320;-66
2022/03/25 03:33:29;;;;;;;34.58;18.88;;;4.30;99.90;;;;;;4990688;28;20046;-66
2022/03/25 03:35:56;;;;;;;32.65;18.33;;;4.30;99.90;;;;;;4992923;28;20103;-66
2022/03/25 03:38:24;;;;;;;31.17;19.48;;;4.30;99.90;;;;;;4990060;28;20216;-66
2022/03/25 03:40:52;;;;;;;32.60;18.27;;;4.30;99.90;;;;;;4993379;28;20521;-66
2022/03/25 03:43:19;;;;;;;31.67;18.27;;;4.30;99.90;;;;;;4994902;28;20031;-72
2022/03/25 03:45:47;;;;;;;31.58;18.65;;;4.20;99.90;;;;;;4990478;28;20058;-66
2022/03/25 03:48:14;;;;;;;31.80;18.15;;;4.20;99.90;;;;;;4990768;28;20070;-65
2022/03/25 03:50:42;;;;;;;28.48;17.83;;;4.10;99.90;;;;;;4989354;28;20050;-66
2022/03/25 03:53:09;;;;;;;30.95;18.35;;;4.10;99.90;;;;;;4990633;28;20042;-66
2022/03/25 03:55:36;;;;;;;31.63;18.98;;;4.10;99.90;;;;;;4989755;28;20050;-66
2022/03/25 03:58:04;;;;;;;30.20;17.70;;;4.00;99.90;;;;;;4990727;28;20050;-65
2022/03/25 04:00:32;;;;;;;30.85;17.35;;;4.10;99.90;;;;;;5006715;28;20057;-66
2022/03/25 04:02:59;;;;;;;28.67;16.42;;;4.00;99.90;;;;;;5009934;28;20072;-64
2022/03/25 04:05:27;;;;;;;30.42;18.70;;;4.00;99.90;;;;;;5004565;28;20042;-66
2022/03/25 04:07:54;;;;;;;31.70;18.95;;;3.90;99.90;;;;;;4991222;28;20432;-66
2022/03/25 04:10:21;;;;;;;34.75;19.17;;;3.90;99.90;;;;;;4992535;28;20401;-66
2022/03/25 04:12:48;;;;;;;31.70;18.23;;;3.80;99.90;;;;;;4995369;28;20057;-66
2022/03/25 04:15:16;;;;;;;30.65;18.67;;;3.80;99.90;;;;;;4989139;28;20513;-66
2022/03/25 04:17:45;;;;;;;36.33;20.20;;;3.80;99.90;;;;;;4994532;28;20073;-66
2022/03/25 04:20:14;;;;;;;33.25;19.65;;;3.80;99.90;;;;;;4996085;28;20521;-67
2022/03/25 04:22:45;;;;;;;29.65;19.45;;;3.70;99.90;;;;;;4994855;28;20042;-67
2022/03/25 04:25:14;;;;;;;34.03;20.25;;;3.70;99.90;;;;;;4984574;28;20399;-66
2022/03/25 04:27:51;;;;;;;34.40;19.67;;;3.60;99.90;;;;;;4988517;28;20057;-66
2022/03/25 04:30:26;;;;;;;36.63;20.88;;;3.60;99.90;;;;;;4986802;28;20051;-66
2022/03/25 04:32:55;;;;;;;37.92;19.75;;;3.50;99.90;;;;;;4987176;28;20046;-66
2022/03/25 04:35:24;;;;;;;35.03;21.20;;;3.50;99.90;;;;;;4987766;28;20117;-66
2022/03/25 04:37:52;;;;;;;38.42;21.27;;;3.40;99.90;;;;;;4990123;28;20035;-66
2022/03/25 04:40:21;;;;;;;35.38;20.15;;;3.40;99.90;;;;;;4989075;28;20445;-66
2022/03/25 04:42:50;;;;;;;37.20;21.15;;;3.30;99.90;;;;;;4991813;28;20076;-66
2022/03/25 04:45:18;;;;;;;32.30;20.17;;;3.20;99.90;;;;;;4998680;28;20042;-66
2022/03/25 04:47:46;;;;;;;39.00;21.33;;;3.30;99.90;;;;;;4993611;28;20054;-66
2022/03/25 04:50:14;;;;;;;33.35;21.65;;;3.30;99.90;;;;;;4992772;28;20529;-66
2022/03/25 04:52:42;;;;;;;34.63;20.02;;;3.30;99.90;;;;;;4992133;28;20053;-66
2022/03/25 04:55:16;;;;;;;38.40;20.33;;;3.40;99.90;;;;;;4996654;28;20454;-66
2022/03/25 04:57:45;;;;;;;38.53;21.58;;;3.40;99.90;;;;;;4999125;28;20038;-66
2022/03/25 05:00:14;;;;;;;35.03;20.85;;;3.40;99.90;;;;;;5012538;28;20046;-65
2022/03/25 05:02:41;;;;;;;33.22;19.60;;;3.40;99.90;;;;;;5004725;28;20126;-65
2022/03/25 05:05:09;;;;;;;35.83;21.27;;;3.40;99.90;;;;;;5006826;28;20050;-66
2022/03/25 05:07:43;;;;;;;38.25;20.50;;;3.40;99.90;;;;;;5007806;28;20517;-66
2022/03/25 05:10:11;;;;;;;38.60;22.00;;;3.40;99.90;;;;;;5004326;28;20473;-66
2022/03/25 05:12:40;;;;;;;38.75;22.85;;;3.40;99.90;;;;;;5005587;28;20125;-66
2022/03/25 05:15:08;;;;;;;40.70;23.17;;;3.40;99.90;;;;;;4993679;28;20482;-66
2022/03/25 05:17:42;;;;;;;38.70;22.42;;;3.40;99.90;;;;;;4995252;28;20424;-66
2022/03/25 05:20:10;;;;;;;38.15;22.38;;;3.40;99.90;;;;;;5002032;28;20062;-65
2022/03/25 05:22:37;;;;;;;42.05;23.42;;;3.40;99.90;;;;;;5009628;28;20053;-66
2022/03/25 05:25:07;;;;;;;39.63;23.48;;;3.50;99.90;;;;;;4997118;28;20072;-65
2022/03/25 05:27:51;;;;;;;39.90;22.65;;;3.50;99.90;;;;;;4993737;28;20071;-66
2022/03/25 05:30:22;;;;;;;38.80;21.98;;;3.50;99.90;;;;;;4990369;28;20043;-65
2022/03/25 05:32:49;;;;;;;36.35;21.70;;;3.60;99.90;;;;;;4991026;28;20521;-66
2022/03/25 05:35:29;;;;;;;34.75;21.45;;;3.60;99.90;;;;;;4992196;28;20042;-65
2022/03/25 05:37:57;;;;;;;36.97;21.50;;;3.70;99.90;;;;;;4997340;28;20052;-65
2022/03/25 05:40:26;;;;;;;37.70;22.67;;;3.60;99.90;;;;;;4992925;28;20500;-66
2022/03/25 05:42:54;;;;;;;40.40;22.63;;;3.70;99.90;;;;;;4992382;28;20050;-66
2022/03/25 05:45:23;;;;;;;37.10;21.50;;;3.70;99.90;;;;;;4998094;28;20045;-66
2022/03/25 05:47:50;;;;;;;37.97;22.63;;;3.70;99.90;;;;;;4996731;28;20054;-67
2022/03/25 05:50:18;;;;;;;39.10;23.67;;;3.70;99.90;;;;;;4995672;28;20422;-66
2022/03/25 05:52:46;;;;;;;40.75;23.38;;;3.70;99.90;;;;;;4991545;28;20072;-67
2022/03/25 05:55:16;;;;;;;36.92;21.90;;;3.70;99.90;;;;;;4992016;28;20084;-66
2022/03/25 05:57:44;;;;;;;36.60;22.52;;;3.80;99.90;;;;;;5000420;28;20069;-65
2022/03/25 06:00:14;;;;;;;38.03;22.77;;;3.90;99.90;;;;;;4995380;28;20042;-65
2022/03/25 06:02:43;;;;;;;38.90;23.10;;;4.00;99.90;;;;;;4991079;28;20072;-66
2022/03/25 06:05:12;;;;;;;38.25;22.42;;;4.10;99.90;;;;;;4994419;28;20116;-66
2022/03/25 06:07:41;;;;;;;39.97;23.02;;;4.10;99.90;;;;;;4989072;28;20571;-66
2022/03/25 06:10:10;;;;;;;33.60;21.45;;;4.20;99.90;;;;;;4995404;28;20141;-66
2022/03/25 06:12:39;;;;;;;37.88;21.85;;;4.20;99.90;;;;;;4992336;28;20065;-66
2022/03/25 06:15:08;;;;;;;38.38;23.40;;;4.20;99.90;;;;;;4992572;28;20042;-66
2022/03/25 06:17:47;;;;;;;38.13;21.73;;;4.20;99.90;;;;;;4989987;28;20133;-65
2022/03/25 06:20:19;;;;;;;38.40;22.90;;;4.30;99.90;;;;;;4998505;28;20046;-68
2022/03/25 06:22:49;;;;;;;42.17;23.27;;;4.40;99.90;;;;;;4992826;28;20043;-66
2022/03/25 06:25:17;;;;;;;37.60;22.42;;;4.40;99.90;;;;;;5000037;28;20121;-66
2022/03/25 06:27:50;;;;;;;37.38;21.92;;;4.40;99.90;;;;;;4992771;28;20073;-66
2022/03/25 06:30:19;;;;;;;40.20;21.58;;;4.50;99.90;;;;;;4991259;28;20043;-67
2022/03/25 06:32:47;;;;;;;38.88;23.30;;;4.50;99.90;;;;;;4994536;28;20053;-66
2022/03/25 06:35:15;;;;;;;38.72;22.45;;;4.40;99.90;;;;;;5011620;28;20046;-66
2022/03/25 06:37:43;;;;;;;39.72;23.55;;;4.50;99.90;;;;;;5008819;28;20042;-66
2022/03/25 06:40:11;;;;;;;39.47;22.23;;;4.50;99.90;;;;;;4991231;28;20050;-66
2022/03/25 06:42:40;;;;;;;37.65;22.48;;;4.50;99.90;;;;;;5004382;28;20615;-66
2022/03/25 06:45:09;;;;;;;34.70;21.52;;;4.60;99.90;;;;;;4991393;28;20409;-66
2022/03/25 06:47:37;;;;;;;38.47;23.48;;;4.60;99.90;;;;;;5003199;28;20042;-67
2022/03/25 06:50:06;;;;;;;42.15;23.48;;;4.80;99.90;;;;;;5005181;28;20046;-66
2022/03/25 06:52:34;;;;;;;45.80;24.80;;;4.90;99.90;;;;;;4999217;28;20425;-66
2022/03/25 06:55:02;;;;;;;39.20;23.65;;;5.00;99.90;;;;;;4993097;28;20121;-66
2022/03/25 06:57:30;;;;;;;38.33;23.33;;;5.10;99.90;;;;;;4990918;28;20449;-67
2022/03/25 06:59:57;;;;;;;43.35;23.23;;;5.10;99.90;;;;;;4994361;28;20046;-67
2022/03/25 07:02:25;;;;;;;40.42;23.40;;;5.30;99.90;;;;;;4992683;28;20078;-66
2022/03/25 07:04:53;;;;;;;40.35;23.27;;;5.40;99.90;;;;;;4992491;28;20073;-66
2022/03/25 07:07:25;;;;;;;40.97;24.80;;;5.60;99.90;;;;;;4993170;28;20144;-66
2022/03/25 07:09:53;;;;;;;35.90;22.58;;;5.60;99.90;;;;;;4989796;28;20391;-66
2022/03/25 07:12:21;;;;;;;39.95;24.38;;;5.60;99.90;;;;;;4996773;28;20074;-65
2022/03/25 07:14:48;;;;;;;39.53;25.70;;;5.80;99.90;;;;;;4991328;28;20053;-66
2022/03/25 07:17:15;;;;;;;40.28;24.08;;;5.80;99.90;;;;;;4994310;28;20042;-67
2022/03/25 07:19:43;;;;;;;41.72;26.23;;;5.90;99.90;;;;;;4991151;28;20125;-67
2022/03/25 07:22:10;;;;;;;43.10;26.08;;;6.00;99.90;;;;;;5004699;28;20050;-67
2022/03/25 07:24:37;;;;;;;38.90;23.65;;;6.10;99.90;;;;;;4996875;28;20054;-66
2022/03/25 07:27:05;;;;;;;46.05;25.65;;;6.20;99.90;;;;;;5001759;28;20117;-66
2022/03/25 07:29:32;;;;;;;38.67;23.38;;;6.40;99.90;;;;;;4993881;28;20042;-68
2022/03/25 07:31:59;;;;;;;43.88;25.30;;;6.50;99.90;;;;;;4997338;28;20081;-68
2022/03/25 07:34:27;;;;;;;45.25;26.27;;;6.60;99.90;;;;;;4999553;28;20046;-67
2022/03/25 07:36:54;;;;;;;40.83;24.23;;;6.70;99.90;;;;;;4986025;28;20058;-68
2022/03/25 07:39:21;;;;;;;41.13;24.67;;;6.80;99.90;;;;;;4995759;28;20042;-68
2022/03/25 07:41:49;;;;;;;44.65;25.40;;;6.90;99.90;;;;;;4991132;28;20493;-67
2022/03/25 07:44:16;;;;;;;44.97;26.15;;;7.10;99.90;;;;;;4993589;28;20810;-66
2022/03/25 07:46:43;;;;;;;39.50;24.65;;;7.10;99.90;;;;;;4990309;28;20062;-66
2022/03/25 07:49:10;;;;;;;42.80;25.67;;;7.30;99.90;;;;;;4991624;28;20062;-66
2022/03/25 07:51:38;;;;;;;43.58;24.08;;;7.50;99.90;;;;;;4983952;28;20508;-67
2022/03/25 07:54:06;;;;;;;48.65;27.33;;;7.70;99.90;;;;;;5006980;28;20050;-67
2022/03/25 07:56:33;;;;;;;50.13;27.92;;;7.80;99.90;;;;;;4994275;28;20046;-67
2022/03/25 07:59:03;;;;;;;51.67;27.88;;;8.00;99.90;;;;;;4995306;28;20478;-67
2022/03/25 08:01:31;;;;;;;42.33;26.63;;;8.00;99.90;;;;;;4997251;28;20479;-67
2022/03/25 08:03:58;;;;;;;45.60;25.25;;;8.10;99.90;;;;;;4993104;28;20362;-67
2022/03/25 08:06:25;;;;;;;45.03;24.88;;;8.30;99.90;;;;;;4991432;28;20043;-67
2022/03/25 08:08:53;;;;;;;44.22;25.73;;;8.40;99.90;;;;;;4992200;28;20425;-67
2022/03/25 08:11:21;;;;;;;42.40;25.27;;;8.60;99.90;;;;;;4997805;28;20054;-67
2022/03/25 08:13:48;;;;;;;45.63;27.33;;;8.80;99.90;;;;;;4991415;28;20116;-67
2022/03/25 08:16:16;;;;;;;42.40;26.65;;;9.00;99.90;;;;;;5000492;28;20046;-67
2022/03/25 08:18:44;;;;;;;46.95;28.02;;;9.20;99.90;;;;;;5006612;28;20053;-67
2022/03/25 08:21:11;;;;;;;45.35;27.50;;;9.30;99.90;;;;;;4992684;28;20034;-67
2022/03/25 08:29:11;;;;;;;44.95;27.88;;;9.80;99.90;;;;;;4993988;28;20050;-67
2022/03/25 08:31:45;;;;;;;41.72;26.98;;;10.00;99.90;;;;;;4995293;28;20552;-68
2022/03/25 08:34:16;;;;;;;43.08;27.48;;;10.10;99.90;;;;;;4993911;28;20042;-67
2022/03/25 08:36:46;;;;;;;45.90;28.73;;;10.30;99.90;;;;;;4992985;28;20034;-66
2022/03/25 08:39:14;;;;;;;42.22;26.42;;;10.40;99.90;;;;;;4999091;28;20042;-67
2022/03/25 08:41:41;;;;;;;44.78;25.90;;;10.40;99.90;;;;;;4997853;28;20425;-67
2022/03/25 08:44:10;;;;;;;47.03;26.67;;;10.60;99.90;;;;;;4991303;28;20510;-65
2022/03/25 08:46:38;;;;;;;51.08;27.77;;;10.80;99.90;;;;;;4992572;28;20038;-65
2022/03/25 08:49:10;;;;;;;43.33;25.80;;;10.90;99.90;;;;;;4990759;28;20042;-67
2022/03/25 08:51:37;;;;;;;41.47;26.38;;;11.10;99.90;;;;;;4990024;28;20042;-65
2022/03/25 08:54:05;;;;;;;45.13;27.38;;;11.20;99.90;;;;;;4991995;28;20046;-68
2022/03/25 08:56:32;;;;;;;48.10;27.23;;;11.40;99.90;;;;;;4992391;28;20038;-67
2022/03/25 08:59:00;;;;;;;50.90;27.13;;;11.50;99.90;;;;;;4992117;28;20042;-67
2022/03/25 09:01:28;;;;;;;47.42;27.58;;;11.60;99.90;;;;;;5000274;28;20038;-66
2022/03/25 09:03:56;;;;;;;45.60;27.30;;;11.60;99.90;;;;;;5005245;28;20465;-67
2022/03/25 09:06:24;;;;;;;44.78;28.00;;;11.60;99.90;;;;;;5002058;28;20567;-68
2022/03/25 09:08:51;;;;;;;39.80;26.67;;;11.70;99.90;;;;;;5014012;28;20053;-67
2022/03/25 09:11:20;;;;;;;43.05;27.05;;;11.90;99.90;;;;;;5005177;28;20489;-67
2022/03/25 09:13:48;;;;;;;44.70;26.42;;;12.10;99.90;;;;;;4997866;28;20417;-66
2022/03/25 09:16:16;;;;;;;45.65;27.35;;;12.30;99.90;;;;;;5012444;28;20420;-67
2022/03/25 09:18:44;;;;;;;43.80;27.17;;;12.30;99.90;;;;;;4997909;28;20060;-66
2022/03/25 09:21:12;;;;;;;44.45;27.35;;;12.50;99.90;;;;;;5004489;28;20042;-67
2022/03/25 09:23:39;;;;;;;43.05;25.92;;;12.50;99.90;;;;;;4992448;28;20085;-67
2022/03/25 09:26:07;;;;;;;40.95;26.02;;;12.60;99.90;;;;;;4992225;28;20042;-67
2022/03/25 09:28:34;;;;;;;43.50;26.33;;;12.80;99.90;;;;;;4996819;28;20042;-66
2022/03/25 09:31:01;;;;;;;46.97;29.02;;;13.00;99.90;;;;;;4994431;28;20136;-66
2022/03/25 09:33:29;;;;;;;40.35;26.25;;;13.20;99.90;;;;;;5000082;28;20481;-68
2022/03/25 09:35:57;;;;;;;43.05;25.67;;;13.40;99.90;;;;;;4997800;28;20050;-68
2022/03/25 09:38:26;;;;;;;45.03;27.08;;;13.70;99.90;;;;;;4993341;28;20475;-67
2022/03/25 09:41:01;;;;;;;47.65;26.92;;;13.90;99.90;;;;;;4993774;28;20050;-66
2022/03/25 09:43:29;;;;;;;40.58;27.67;;;14.00;99.90;;;;;;4992090;28;20421;-67
2022/03/25 09:45:56;;;;;;;43.55;27.00;;;14.30;99.90;;;;;;4993745;28;20044;-66
2022/03/25 09:48:24;;;;;;;42.85;27.23;;;14.50;99.90;;;;;;5000176;28;20034;-66
2022/03/25 09:50:51;;;;;;;43.85;26.98;;;14.60;99.90;;;;;;4992350;28;20046;-67
2022/03/25 09:53:40;;;;;;;50.80;27.05;;;14.80;99.90;;;;;;4991511;28;20465;-67
2022/03/25 09:56:08;;;;;;;46.08;26.98;;;15.00;99.90;;;;;;4991952;28;20474;-67
2022/03/25 09:58:36;;;;;;;44.05;27.40;;;15.20;99.90;;;;;;4992218;28;20058;-67
2022/03/25 10:01:03;;;;;;;41.88;27.25;;;15.50;99.90;;;;;;4992196;28;20486;-67
2022/03/25 10:03:35;;;;;;;46.05;27.10;;;15.60;99.90;;;;;;4992223;28;20113;-67
2022/03/25 10:06:10;;;;;;;46.40;28.25;;;15.70;99.90;;;;;;4995619;28;20046;-67
2022/03/25 10:08:53;;;;;;;48.95;27.27;;;15.80;99.90;;;;;;5005095;28;20512;-67
2022/03/25 10:11:31;;;;;;;43.80;27.02;;;15.70;99.90;;;;;;4998755;28;20054;-67
2022/03/25 10:14:22;;;;;;;41.67;26.48;;;15.90;99.20;;;;;;5005253;28;20042;-67
2022/03/25 10:16:51;;;;;;;42.45;26.58;;;16.10;98.50;;;;;;5010826;28;20075;-67
2022/03/25 10:19:56;;;;;;;39.53;23.92;;;16.10;97.80;;;;;;4992816;28;20046;-67
2022/03/25 10:22:23;;;;;;;39.03;25.25;;;16.50;96.60;;;;;;4990657;28;20042;-66
2022/03/25 10:24:54;;;;;;;46.67;26.83;;;17.00;95.30;;;;;;4999209;28;20413;-67
2022/03/25 10:27:31;;;;;;;43.97;26.25;;;17.20;95.20;;;;;;4995958;28;20042;-67
2022/03/25 10:30:00;;;;;;;39.63;24.42;;;17.50;93.10;;;;;;5002611;28;20047;-67
2022/03/25 10:32:29;;;;;;;40.10;25.33;;;17.80;90.70;;;;;;4991296;28;20039;-67
2022/03/25 10:35:09;;;;;;;35.70;24.35;;;18.20;88.00;;;;;;5009922;28;20042;-67
2022/03/25 10:37:54;;;;;;;35.92;23.30;;;18.60;85.80;;;;;;4995154;28;20063;-69
2022/03/25 10:40:22;;;;;;;35.47;24.23;;;18.90;82.70;;;;;;4993054;28;20054;-67
2022/03/25 10:43:07;;;;;;;37.97;23.25;;;19.20;79.00;;;;;;5003352;28;20042;-68
2022/03/25 10:45:41;;;;;;;37.67;23.75;;;19.50;77.40;;;;;;5000604;28;20060;-67
2022/03/25 10:48:20;;;;;;;36.58;23.50;;;19.70;75.10;;;;;;4993719;28;20137;-67
2022/03/25 10:51:01;;;;;;;40.22;23.65;;;19.90;74.10;;;;;;5010310;28;20038;-67
2022/03/25 10:53:30;;;;;;;38.63;24.23;;;20.10;72.20;;;;;;5001305;28;20042;-67
2022/03/25 10:55:58;;;;;;;37.08;23.27;;;20.30;70.80;;;;;;4989039;28;20050;-68
2022/03/25 10:58:26;;;;;;;37.00;24.40;;;20.50;69.90;;;;;;4992225;28;20054;-66
2022/03/25 11:00:54;;;;;;;36.20;24.05;;;20.60;68.80;;;;;;4995755;28;20051;-67
2022/03/25 11:03:23;;;;;;;41.35;24.48;;;20.60;67.60;;;;;;4997216;28;20058;-67
2022/03/25 11:05:51;;;;;;;35.55;22.88;;;20.90;67.20;;;;;;5008875;28;20058;-67
2022/03/25 11:08:19;;;;;;;34.50;22.65;;;21.00;66.10;;;;;;5001101;28;20039;-67
2022/03/25 11:10:54;;;;;;;38.30;24.23;;;21.10;65.50;;;;;;5005603;28;20077;-67
2022/03/25 11:13:22;;;;;;;32.35;22.70;;;21.40;64.30;;;;;;4992081;28;20129;-67
2022/03/25 11:15:53;;;;;;;32.97;23.52;;;21.50;63.80;;;;;;4995298;28;20070;-67
2022/03/25 11:18:21;;;;;;;31.20;23.10;;;21.40;63.70;;;;;;4989056;28;20134;-67
2022/03/25 11:20:52;;;;;;;32.65;23.67;;;21.60;63.50;;;;;;4988446;28;20506;-67
2022/03/25 11:23:48;;;;;;;38.08;22.55;;;21.70;62.30;;;;;;4990748;28;20042;-67
2022/03/25 11:26:19;;;;;;;34.38;21.95;;;21.90;61.70;;;;;;4990604;28;20038;-67
2022/03/25 11:28:52;;;;;;;32.85;22.25;;;22.10;61.40;;;;;;4988793;28;20045;-66
2022/03/25 11:31:20;;;;;;;32.42;23.42;;;22.40;60.00;;;;;;4988701;28;20363;-66
2022/03/25 11:34:12;;;;;;;33.97;23.55;;;22.80;59.20;;;;;;4989817;28;20046;-66
2022/03/25 11:36:43;;;;;;;35.13;23.50;;;23.10;58.90;;;;;;4988694;28;20050;-67
2022/03/25 11:39:21;;;;;;;32.10;22.85;;;23.30;57.90;;;;;;5003891;28;20046;-67
2022/03/25 11:41:49;;;;;;;31.63;22.60;;;23.40;57.90;;;;;;4990322;28;20458;-66
2022/03/25 11:44:18;;;;;;;30.70;22.13;;;23.30;57.90;;;;;;5001917;28;20041;-66
2022/03/25 11:47:03;;;;;;;29.15;21.60;;;23.50;57.50;;;;;;4991030;28;20039;-66
2022/03/25 11:49:38;;;;;;;31.90;21.70;;;23.80;56.60;;;;;;4988656;28;20113;-66
2022/03/25 11:52:25;;;;;;;27.95;20.00;;;24.20;55.20;;;;;;4994518;28;20053;-65
2022/03/25 11:55:00;;;;;;;29.48;20.92;;;24.50;54.70;;;;;;4993220;28;20047;-67
2022/03/25 11:57:35;;;;;;;31.63;23.25;;;24.70;54.10;;;;;;4995641;28;20495;-67
2022/03/25 12:00:11;;;;;;;33.97;24.05;;;24.80;54.50;;;;;;4991795;28;20498;-66
2022/03/25 12:02:42;;;;;;;32.15;22.48;;;25.00;54.50;;;;;;4994078;28;20054;-66
2022/03/25 12:05:24;;;;;;;31.10;22.90;;;25.10;54.00;;;;;;4994549;28;20042;-66
2022/03/25 12:08:28;;;;;;;34.90;23.55;;;25.30;53.60;;;;;;4992698;28;20126;-66
2022/03/25 12:10:56;;;;;;;29.52;22.92;;;25.30;53.00;;;;;;4992653;28;20096;-67
2022/03/25 12:13:54;;;;;;;32.72;23.15;;;25.30;52.60;;;;;;4992959;28;20415;-67
2022/03/25 12:16:51;;;;;;;34.10;24.25;;;25.60;52.50;;;;;;4998918;28;20080;-66
2022/03/25 12:19:38;;;;;;;32.80;23.40;;;26.00;52.30;;;;;;4991365;28;20081;-67
2022/03/25 12:22:21;;;;;;;34.63;23.83;;;25.90;51.80;;;;;;4991160;28;20050;-67
2022/03/25 12:24:50;;;;;;;33.28;24.50;;;25.80;52.00;;;;;;4999313;28;20567;-66
2022/03/25 12:27:18;;;;;;;33.58;23.02;;;26.00;51.50;;;;;;5004620;28;20050;-66
2022/03/25 12:29:48;;;;;;;32.50;22.90;;;26.00;50.70;;;;;;4994095;28;20050;-66
2022/03/25 12:32:17;;;;;;;34.90;23.90;;;26.10;50.20;;;;;;4994751;28;20627;-66
2022/03/25 12:35:01;;;;;;;31.13;23.33;;;26.00;50.20;;;;;;4993275;28;20481;-67
2022/03/25 12:37:34;;;;;;;32.13;23.13;;;25.90;50.70;;;;;;4991980;28;20054;-66
2022/03/25 12:40:26;;;;;;;32.10;23.48;;;25.90;50.10;;;;;;4992607;28;20046;-67
2022/03/25 12:43:02;;;;;;;28.67;23.13;;;25.70;50.30;;;;;;4992863;28;20061;-67
2022/03/25 12:45:35;;;;;;;34.30;24.30;;;25.90;49.60;;;;;;4994002;28;20129;-66
2022/03/25 12:48:18;;;;;;;30.17;22.08;;;25.90;49.80;;;;;;4993712;28;20057;-67
2022/03/25 12:50:55;;;;;;;32.88;22.83;;;26.50;49.10;;;;;;4993461;28;20062;-67
2022/03/25 12:53:25;;;;;;;31.55;22.77;;;27.00;48.80;;;;;;4993527;28;20385;-68